createdAt,value
2019-05-02T00:00:58.930Z,13.05
2019-05-02T00:03:29.466Z,11.30
2019-05-02T00:06:03.008Z,16.02
2019-05-02T00:08:33.224Z,12.65
2019-05-02T00:11:02.920Z,12.03
2019-05-02T00:13:32.842Z,12.78
2019-05-02T00:16:02.819Z,12.68
2019-05-02T00:18:37.184Z,12.50
2019-05-02T00:21:04.866Z,13.38
2019-05-02T00:23:34.933Z,13.72
2019-05-02T00:26:04.824Z,15.43
2019-05-02T00:28:34.875Z,14.07
2019-05-02T00:31:07.459Z,14.58
2019-05-02T00:33:36.404Z,13.03
2019-05-02T00:36:06.268Z,13.95
2019-05-02T00:38:38.352Z,14.43
2019-05-02T00:41:07.196Z,15.43
2019-05-02T00:43:36.923Z,16.42
2019-05-02T00:46:06.666Z,14.70
2019-05-02T00:48:37.901Z,16.17
2019-05-02T00:51:07.575Z,17.60
2019-05-02T00:53:37.189Z,17.50
2019-05-02T00:56:09.070Z,17.25
2019-05-02T00:58:38.151Z,16.45
2019-05-02T01:01:10.692Z,17.00
2019-05-02T01:03:41.922Z,17.27
2019-05-02T01:06:14.553Z,21.20
2019-05-02T01:08:43.245Z,19.30
2019-05-02T01:11:13.007Z,16.25
2019-05-02T01:13:42.693Z,18.27
2019-05-02T01:16:15.252Z,16.73
2019-05-02T01:18:44.587Z,17.27
2019-05-02T01:21:14.990Z,18.60
2019-05-02T01:23:44.837Z,19.73
2019-05-02T01:26:14.719Z,18.45
2019-05-02T01:28:49.196Z,18.15
2019-05-02T01:31:37.640Z,18.48
2019-05-02T01:34:23.561Z,17.70
2019-05-02T01:36:55.045Z,16.15
2019-05-02T01:39:24.737Z,16.62
2019-05-02T01:41:54.395Z,17.82
2019-05-02T01:44:24.128Z,17.50
2019-05-02T01:46:54.062Z,21.27
2019-05-02T01:49:25.165Z,17.35
2019-05-02T01:51:54.982Z,17.48
2019-05-02T01:54:24.588Z,19.15
2019-05-02T01:56:54.195Z,19.00
2019-05-02T01:59:23.870Z,18.60
2019-05-02T02:01:57.968Z,19.37
2019-05-02T02:04:24.880Z,19.67
2019-05-02T02:06:54.732Z,21.42
2019-05-02T02:09:24.586Z,21.12
2019-05-02T02:11:54.206Z,22.87
2019-05-02T02:14:23.885Z,21.87
2019-05-02T02:16:53.491Z,22.20
2019-05-02T02:19:27.136Z,23.07
2019-05-02T02:22:07.449Z,22.80
2019-05-02T02:24:39.004Z,21.45
2019-05-02T02:27:09.542Z,26.10
2019-05-02T02:29:43.879Z,23.30
2019-05-02T02:32:10.554Z,22.65
2019-05-02T02:34:40.170Z,23.05
2019-05-02T02:37:12.449Z,23.20
2019-05-02T02:39:41.093Z,24.95
2019-05-02T02:42:10.698Z,25.40
2019-05-02T02:44:50.788Z,20.82
2019-05-02T02:47:21.247Z,23.12
2019-05-02T02:49:55.769Z,25.77
2019-05-02T02:52:22.379Z,23.80
2019-05-02T02:54:51.994Z,25.32
2019-05-02T02:57:26.282Z,29.77
2019-05-02T02:59:52.904Z,25.23
2019-05-02T03:02:22.525Z,26.33
2019-05-02T03:04:52.199Z,24.43
2019-05-02T03:07:25.697Z,26.05
2019-05-02T03:09:53.509Z,21.33
2019-05-02T03:12:22.981Z,24.92
2019-05-02T03:14:57.092Z,24.55
2019-05-02T03:17:28.726Z,26.00
2019-05-02T03:20:01.381Z,31.93
2019-05-02T03:22:34.769Z,27.42
2019-05-02T03:25:00.994Z,28.85
2019-05-02T03:27:37.242Z,26.90
2019-05-02T03:30:02.604Z,25.02
2019-05-02T03:41:23.143Z,29.18
2019-05-02T03:44:09.442Z,30.90
2019-05-02T03:46:22.956Z,26.80
2019-05-02T03:49:05.438Z,33.30
2019-05-02T03:51:25.369Z,33.37
2019-05-02T03:54:05.799Z,26.60
2019-05-02T03:56:26.683Z,25.05
2019-05-02T03:58:58.296Z,26.87
2019-05-02T04:01:27.794Z,24.85
2019-05-02T04:03:57.647Z,21.37
2019-05-02T04:06:27.394Z,26.15
2019-05-02T04:09:00.043Z,27.80
2019-05-02T04:11:37.861Z,25.92
2019-05-02T04:14:00.255Z,27.52
2019-05-02T04:16:30.921Z,24.90
2019-05-02T04:19:02.936Z,26.93
2019-05-02T04:21:32.847Z,26.83
2019-05-02T04:24:12.969Z,27.13
2019-05-02T04:26:34.652Z,27.10
2019-05-02T04:29:04.460Z,26.55
2019-05-02T04:31:34.092Z,26.73
2019-05-02T04:34:14.355Z,28.27
2019-05-02T04:36:35.111Z,27.85
2019-05-02T04:39:12.707Z,30.70
2019-05-02T04:41:39.228Z,31.05
2019-05-02T04:44:09.414Z,29.57
2019-05-02T04:46:39.144Z,31.45
2019-05-02T04:49:09.291Z,32.33
2019-05-02T04:51:39.023Z,33.63
2019-05-02T04:54:09.347Z,31.20
2019-05-02T04:56:48.547Z,35.50
2019-05-02T04:59:17.557Z,36.42
2019-05-02T05:01:49.175Z,37.15
2019-05-02T05:04:13.248Z,37.65
2019-05-02T05:06:52.842Z,40.90
2019-05-02T05:09:15.005Z,40.70
2019-05-02T05:11:44.749Z,40.45
2019-05-02T05:14:14.352Z,37.05
2019-05-02T05:16:45.488Z,43.20
2019-05-02T05:19:15.337Z,38.65
2019-05-02T05:21:44.931Z,38.28
2019-05-02T05:24:18.131Z,38.75
2019-05-02T05:26:50.460Z,39.75
2019-05-02T05:29:23.244Z,43.35
2019-05-02T05:31:55.193Z,40.90
2019-05-02T05:34:27.480Z,38.90
2019-05-02T05:36:54.079Z,36.68
2019-05-02T05:39:23.710Z,36.28
2019-05-02T05:41:53.309Z,41.68
2019-05-02T05:44:23.181Z,39.63
2019-05-02T05:46:54.241Z,40.25
2019-05-02T05:49:24.149Z,39.48
2019-05-02T05:51:59.509Z,39.55
2019-05-02T05:54:25.676Z,43.35
2019-05-02T05:56:57.173Z,37.70
2019-05-02T05:59:30.733Z,38.58
2019-05-02T06:01:58.221Z,39.80
2019-05-02T06:04:32.677Z,38.17
2019-05-02T06:07:03.111Z,39.08
2019-05-02T06:09:32.368Z,42.40
2019-05-02T06:12:02.131Z,42.75
2019-05-02T06:14:34.263Z,41.08
2019-05-02T06:17:03.309Z,39.40
2019-05-02T06:19:33.952Z,43.40
2019-05-02T06:22:03.555Z,35.78
2019-05-02T06:24:34.005Z,41.35
2019-05-02T06:27:03.655Z,41.95
2019-05-02T06:29:33.272Z,35.15
2019-05-02T06:32:03.554Z,46.02
2019-05-02T06:34:33.172Z,39.10
2019-05-02T06:37:02.939Z,38.60
2019-05-02T06:39:33.251Z,41.13
2019-05-02T06:42:02.919Z,42.60
2019-05-02T06:44:32.519Z,42.70
2019-05-02T06:47:04.395Z,38.65
2019-05-02T06:49:33.628Z,41.92
2019-05-02T06:52:03.231Z,44.10
2019-05-02T06:54:32.933Z,53.02
2019-05-02T06:57:02.530Z,44.90
2019-05-02T06:59:32.124Z,52.10
2019-05-02T07:02:01.814Z,48.87
2019-05-02T07:04:31.428Z,45.50
2019-05-02T07:07:01.074Z,54.35
2019-05-02T07:09:40.565Z,52.48
2019-05-02T07:12:02.215Z,47.70
2019-05-02T07:14:31.869Z,44.63
2019-05-02T07:17:05.679Z,50.90
2019-05-02T07:19:36.193Z,53.33
2019-05-02T07:22:05.986Z,48.08
2019-05-02T07:24:35.801Z,51.92
2019-05-02T07:27:05.473Z,54.80
2019-05-02T07:29:35.087Z,54.77
2019-05-02T07:32:05.216Z,55.60
2019-05-02T07:34:35.222Z,60.75
2019-05-02T07:37:08.407Z,55.17
2019-05-02T07:39:40.914Z,55.38
2019-05-02T07:42:09.769Z,60.92
2019-05-02T07:44:39.363Z,51.45
2019-05-02T07:47:08.968Z,44.63
2019-05-02T07:49:39.505Z,56.83
2019-05-02T07:52:09.101Z,51.05
2019-05-02T07:54:38.798Z,57.78
2019-05-02T07:57:09.726Z,61.25
2019-05-02T07:59:39.336Z,55.23
2019-05-02T08:02:09.393Z,62.43
2019-05-02T08:04:43.572Z,53.25
2019-05-02T08:07:10.402Z,66.05
2019-05-02T08:09:44.049Z,64.30
2019-05-02T08:12:11.878Z,56.30
2019-05-02T08:14:41.567Z,51.88
2019-05-02T08:17:17.294Z,60.30
2019-05-02T08:19:43.311Z,59.88
2019-05-02T08:22:14.831Z,58.23
2019-05-02T08:24:44.979Z,59.48
2019-05-02T08:27:23.201Z,62.15
2019-05-02T08:29:53.549Z,61.58
2019-05-02T08:32:23.138Z,64.47
2019-05-02T08:34:53.525Z,60.00
2019-05-02T08:37:23.146Z,61.88
2019-05-02T08:39:52.762Z,62.08
2019-05-02T08:42:22.366Z,65.80
2019-05-02T08:44:56.237Z,55.88
2019-05-02T08:47:28.021Z,62.80
2019-05-02T08:49:56.635Z,56.18
2019-05-02T08:52:26.400Z,64.12
2019-05-02T08:54:56.039Z,59.63
2019-05-02T08:57:25.710Z,61.63
2019-05-02T09:00:00.123Z,56.18
2019-05-02T09:02:27.482Z,63.33
2019-05-02T09:04:58.565Z,57.00
2019-05-02T09:07:31.641Z,60.15
2019-05-02T09:10:00.203Z,59.85
2019-05-02T09:12:31.994Z,55.45
2019-05-02T09:15:02.726Z,59.10
2019-05-02T09:17:38.253Z,57.60
2019-05-02T09:20:15.103Z,55.23
2019-05-02T09:22:38.064Z,53.00
2019-05-02T09:25:10.020Z,54.15
2019-05-02T09:27:39.618Z,58.92
2019-05-02T09:30:17.163Z,48.60
2019-05-02T09:32:45.125Z,56.58
2019-05-02T09:35:14.883Z,50.90
2019-05-02T09:37:44.477Z,50.45
2019-05-02T09:40:16.720Z,49.58
2019-05-02T09:42:47.625Z,48.10
2019-05-02T09:45:22.702Z,47.73
2019-05-02T09:48:01.311Z,49.65
2019-05-02T09:50:30.002Z,49.50
2019-05-02T09:52:55.972Z,49.93
2019-05-02T09:55:25.650Z,37.98
2019-05-02T09:57:55.358Z,53.70
2019-05-02T10:00:38.106Z,52.60
2019-05-02T10:03:07.712Z,55.15
2019-05-02T10:05:37.447Z,48.10
2019-05-02T10:08:10.991Z,46.58
2019-05-02T10:10:42.530Z,48.02
2019-05-02T10:13:12.200Z,46.05
2019-05-02T10:15:42.279Z,44.53
2019-05-02T10:18:14.645Z,46.88
2019-05-02T10:20:43.584Z,46.20
2019-05-02T10:23:19.452Z,50.63
2019-05-02T10:25:46.886Z,44.27
2019-05-02T10:28:17.091Z,39.05
2019-05-02T10:30:47.407Z,42.43
2019-05-02T10:33:18.277Z,35.17
2019-05-02T10:35:49.561Z,41.95
2019-05-02T10:38:19.602Z,51.70
2019-05-02T10:40:55.586Z,41.63
2019-05-02T10:43:22.277Z,37.42
2019-05-02T10:45:56.424Z,31.70
2019-05-02T10:51:13.045Z,40.08
2019-05-02T10:53:47.081Z,37.23
2019-05-02T10:56:14.000Z,26.70
2019-05-02T10:58:43.597Z,32.20
2019-05-02T11:01:14.852Z,19.32
2019-05-02T11:03:57.844Z,18.20
2019-05-02T11:06:27.458Z,9.78
2019-05-02T11:08:57.048Z,14.20
2019-05-02T11:11:26.807Z,13.75
2019-05-02T11:14:04.865Z,20.68
2019-05-02T11:16:42.215Z,18.42
2019-05-02T11:19:15.924Z,17.55
2019-05-02T11:21:55.813Z,16.30
2019-05-02T11:24:17.383Z,18.90
2019-05-02T11:26:46.994Z,21.45
2019-05-02T11:29:16.679Z,22.48
2019-05-02T11:31:46.582Z,22.65
2019-05-02T11:34:16.449Z,21.80
2019-05-02T11:36:47.127Z,27.85
2019-05-02T11:39:25.510Z,23.87
2019-05-02T11:41:48.669Z,15.18
2019-05-02T11:44:18.282Z,21.00
2019-05-02T11:46:47.972Z,24.18
2019-05-02T11:49:17.579Z,24.20
2019-05-02T11:51:52.796Z,26.55
2019-05-02T11:54:18.844Z,23.85
2019-05-02T11:56:49.302Z,27.82
2019-05-02T11:59:20.788Z,33.28
2019-05-02T12:02:00.090Z,33.63
2019-05-02T12:04:29.886Z,34.08
2019-05-02T12:07:01.557Z,38.33
2019-05-02T12:09:31.956Z,33.10
2019-05-02T12:12:02.525Z,41.92
2019-05-02T12:14:36.267Z,35.88
2019-05-02T12:17:03.582Z,38.20
2019-05-02T12:19:33.194Z,43.20
2019-05-02T12:22:02.916Z,34.10
2019-05-02T12:24:36.479Z,43.50
2019-05-02T12:27:05.664Z,36.25
2019-05-02T12:29:35.277Z,35.58
2019-05-02T12:32:04.937Z,36.50
2019-05-02T12:34:34.625Z,30.10
2019-05-02T12:37:04.232Z,38.67
2019-05-02T12:39:33.845Z,23.90
2019-05-02T12:42:03.970Z,27.02
2019-05-02T12:44:33.671Z,33.75
2019-05-02T12:47:03.448Z,30.82
2019-05-02T12:49:33.059Z,30.05
2019-05-02T12:52:02.749Z,22.82
2019-05-02T12:54:32.601Z,22.45
2019-05-02T12:57:02.290Z,24.52
2019-05-02T12:59:32.273Z,19.12
2019-05-02T13:02:03.799Z,21.52
2019-05-02T13:04:33.428Z,22.62
2019-05-02T13:07:03.033Z,23.52
2019-05-02T13:09:32.717Z,21.93
2019-05-02T13:12:04.018Z,17.35
2019-05-02T13:14:33.774Z,26.50
2019-05-02T13:17:05.732Z,23.50
2019-05-02T13:19:40.221Z,22.65
2019-05-02T13:22:08.353Z,21.57
2019-05-02T13:24:39.738Z,25.82
2019-05-02T13:27:12.614Z,20.12
2019-05-02T13:32:27.044Z,25.30
2019-05-02T13:35:03.848Z,23.32
2019-05-02T13:37:33.601Z,22.25
2019-05-02T13:40:17.021Z,27.93
2019-05-02T13:42:45.473Z,26.70
2019-05-02T13:45:33.754Z,28.38
2019-05-02T13:48:03.532Z,18.75
2019-05-02T13:50:33.222Z,19.95
2019-05-02T13:53:02.862Z,24.85
2019-05-02T13:55:34.243Z,20.27
2019-05-02T13:58:03.929Z,20.08
2019-05-02T14:00:38.305Z,20.32
2019-05-02T14:03:08.131Z,17.92
2019-05-02T14:05:42.183Z,19.00
2019-05-02T14:08:17.197Z,17.27
2019-05-02T14:10:52.696Z,17.05
2019-05-02T14:13:22.469Z,9.75
2019-05-02T14:15:52.733Z,12.13
2019-05-02T14:18:28.687Z,15.93
2019-05-02T14:20:53.902Z,10.93
2019-05-02T14:23:23.829Z,14.95
2019-05-02T14:25:53.479Z,11.08
2019-05-02T14:28:26.911Z,9.18
2019-05-02T14:30:54.603Z,14.28
2019-05-02T14:33:25.857Z,9.18
2019-05-02T14:35:55.829Z,8.40
2019-05-02T14:38:25.454Z,13.28
2019-05-02T14:40:57.323Z,8.53
2019-05-02T14:43:46.824Z,13.78
2019-05-02T14:46:17.972Z,8.40
2019-05-02T14:48:48.683Z,10.50
2019-05-02T14:51:23.066Z,11.48
2019-05-02T14:53:52.331Z,11.75
2019-05-02T14:56:43.412Z,16.17
2019-05-02T14:59:17.887Z,18.17
2019-05-02T15:01:47.047Z,12.45
2019-05-02T15:04:16.816Z,14.50
2019-05-02T15:06:47.532Z,9.20
2019-05-02T15:09:22.484Z,8.20
2019-05-02T15:12:03.050Z,11.40
2019-05-02T15:14:34.794Z,8.93
2019-05-02T15:17:05.672Z,12.63
2019-05-02T15:19:35.328Z,8.38
2019-05-02T15:22:05.257Z,6.33
2019-05-02T15:24:37.481Z,13.48
2019-05-02T15:27:12.269Z,6.78
2019-05-02T15:29:38.007Z,7.50
2019-05-02T15:32:25.336Z,8.03
2019-05-02T15:35:04.649Z,7.08
2019-05-02T15:37:35.983Z,9.65
2019-05-02T15:42:39.222Z,8.43
2019-05-02T15:45:09.056Z,8.68
2019-05-02T15:47:41.723Z,7.40
2019-05-02T15:50:14.690Z,8.15
2019-05-02T15:52:43.318Z,8.85
2019-05-02T15:55:13.514Z,10.25
2019-05-02T15:57:45.991Z,9.10
2019-05-02T16:00:23.179Z,11.25
2019-05-02T16:02:48.853Z,7.42
2019-05-02T16:05:18.611Z,7.80
2019-05-02T16:07:48.211Z,5.80
2019-05-02T16:10:18.233Z,9.03
2019-05-02T16:12:49.754Z,3.98
2019-05-02T16:15:22.221Z,2.70
2019-05-02T16:17:52.259Z,9.13
2019-05-02T16:20:29.722Z,6.42
2019-05-02T16:22:59.664Z,6.25
2019-05-02T16:25:29.261Z,7.20
2019-05-02T16:28:04.560Z,6.90
2019-05-02T16:30:31.924Z,6.72
2019-05-02T16:33:02.744Z,4.67
2019-05-02T16:35:34.114Z,7.30
2019-05-02T16:38:03.711Z,5.20
2019-05-02T16:40:34.866Z,2.85
2019-05-02T16:43:04.605Z,5.60
2019-05-02T16:45:34.514Z,6.60
2019-05-02T16:48:04.284Z,6.15
2019-05-02T16:50:36.752Z,2.72
2019-05-02T16:53:05.364Z,6.58
2019-05-02T16:55:34.978Z,6.25
2019-05-02T16:58:07.117Z,7.22
2019-05-02T17:00:41.856Z,2.58
2019-05-02T17:03:09.492Z,5.25
2019-05-02T17:05:44.304Z,3.72
2019-05-02T17:08:18.821Z,6.37
2019-05-02T17:10:53.788Z,6.17
2019-05-02T17:13:21.486Z,4.03
2019-05-02T17:15:52.258Z,4.75
2019-05-02T17:18:22.838Z,5.40
2019-05-02T17:20:56.679Z,4.20
2019-05-02T17:23:23.996Z,5.85
2019-05-02T17:25:53.644Z,6.25
2019-05-02T17:28:23.290Z,6.17
2019-05-02T17:30:53.246Z,3.10
2019-05-02T17:33:22.942Z,10.95
2019-05-02T17:35:54.366Z,4.17
2019-05-02T17:38:29.056Z,6.35
2019-05-02T17:40:59.149Z,4.28
2019-05-02T17:43:26.924Z,5.60
2019-05-02T17:45:56.765Z,3.85
2019-05-02T17:48:26.375Z,2.80
2019-05-02T17:51:02.141Z,7.30
2019-05-02T17:53:33.531Z,3.17
2019-05-02T17:56:03.269Z,5.53
2019-05-02T17:58:33.227Z,6.53
2019-05-02T18:01:04.474Z,6.80
2019-05-02T18:03:35.459Z,4.62
2019-05-02T18:06:07.551Z,9.95
2019-05-02T18:08:36.879Z,2.33
2019-05-02T18:11:06.861Z,7.08
2019-05-02T18:13:36.566Z,5.58
2019-05-02T18:16:07.692Z,4.97
2019-05-02T18:18:43.817Z,5.22
2019-05-02T18:21:09.656Z,8.75
2019-05-02T18:23:39.254Z,8.75
2019-05-02T18:26:08.837Z,5.75
2019-05-02T18:28:47.043Z,5.35
2019-05-02T18:31:12.060Z,5.67
2019-05-02T18:33:42.494Z,4.12
2019-05-02T18:36:12.172Z,6.03
2019-05-02T18:38:41.906Z,4.37
2019-05-02T18:41:12.088Z,3.90
2019-05-02T18:43:45.202Z,10.80
2019-05-02T18:46:13.235Z,7.35
2019-05-02T18:48:48.948Z,3.12
2019-05-02T18:51:18.946Z,8.30
2019-05-02T18:53:48.788Z,4.92
2019-05-02T18:56:18.495Z,5.78
2019-05-02T18:58:48.122Z,4.60
2019-05-02T19:01:20.746Z,4.30
2019-05-02T19:03:52.621Z,7.28
2019-05-02T19:06:21.994Z,4.78
2019-05-02T19:08:54.897Z,5.33
2019-05-02T19:11:26.755Z,6.00
2019-05-02T19:13:55.899Z,4.10
2019-05-02T19:16:28.687Z,5.12
2019-05-02T19:18:57.662Z,7.55
2019-05-02T19:21:32.152Z,5.37
2019-05-02T19:24:02.276Z,5.62
2019-05-02T19:26:32.633Z,5.03
2019-05-02T19:29:08.435Z,10.18
2019-05-02T19:31:44.430Z,7.00
2019-05-02T19:34:16.623Z,5.90
2019-05-02T19:36:43.576Z,4.00
2019-05-02T19:39:13.623Z,4.22
2019-05-02T19:41:43.994Z,3.58
2019-05-02T19:44:21.436Z,5.75
2019-05-02T19:46:47.803Z,3.05
2019-05-02T19:49:17.397Z,6.62
2019-05-02T19:51:50.537Z,10.32
2019-05-02T19:54:18.486Z,5.87
2019-05-02T19:56:48.108Z,5.08
2019-05-02T19:59:24.577Z,5.65
2019-05-02T20:01:49.191Z,7.08
2019-05-02T20:04:19.281Z,9.60
2019-05-02T20:06:48.999Z,6.67
2019-05-02T20:09:20.514Z,7.85
2019-05-02T20:11:52.021Z,5.53
2019-05-02T20:14:21.899Z,4.55
2019-05-02T20:16:55.393Z,4.90
2019-05-02T20:19:26.931Z,7.92
2019-05-02T20:22:02.784Z,7.75
2019-05-02T20:24:33.695Z,7.30
2019-05-02T20:27:03.377Z,8.50
2019-05-02T20:29:33.044Z,7.50
2019-05-02T20:32:03.780Z,9.73
2019-05-02T20:34:33.382Z,5.87
2019-05-02T20:37:03.056Z,5.03
2019-05-02T20:39:32.656Z,5.62
2019-05-02T20:42:02.732Z,5.33
2019-05-02T20:44:32.565Z,6.65
2019-05-02T20:47:02.588Z,8.78
2019-05-02T20:49:32.377Z,7.97
2019-05-02T20:52:02.505Z,8.75
2019-05-02T20:54:32.388Z,11.03
2019-05-02T20:57:02.528Z,7.65
2019-05-02T20:59:32.348Z,10.10
2019-05-02T21:02:02.313Z,10.85
2019-05-02T21:04:31.982Z,10.50
2019-05-02T21:07:18.171Z,7.72
2019-05-02T21:09:54.934Z,8.28
2019-05-02T21:12:24.928Z,4.00
2019-05-02T21:14:54.651Z,5.67
2019-05-02T21:17:24.321Z,11.38
2019-05-02T21:19:53.978Z,5.30
2019-05-02T21:22:28.612Z,5.05
2019-05-02T21:24:58.274Z,8.35
2019-05-02T21:27:28.204Z,4.87
2019-05-02T21:29:58.228Z,4.70
2019-05-02T21:32:27.864Z,8.20
2019-05-02T21:34:57.563Z,7.08
2019-05-02T21:37:27.241Z,8.28
2019-05-02T21:39:56.871Z,10.30
2019-05-02T21:42:26.513Z,7.60
2019-05-02T21:44:56.256Z,11.63
2019-05-02T21:47:26.084Z,5.80
2019-05-02T21:50:05.936Z,6.95
2019-05-02T21:52:52.814Z,7.20
2019-05-02T21:55:22.244Z,4.70
2019-05-02T21:57:52.189Z,6.17
2019-05-02T22:00:43.539Z,3.37
2019-05-02T22:03:13.455Z,6.90
2019-05-02T22:05:44.105Z,8.18
2019-05-02T22:08:14.075Z,7.67
2019-05-02T22:10:43.729Z,10.53
2019-05-02T22:13:13.370Z,5.67
2019-05-02T22:15:43.064Z,8.53
2019-05-02T22:18:13.770Z,7.40
2019-05-02T22:20:43.425Z,8.35
2019-05-02T22:23:13.377Z,7.92
2019-05-02T22:25:43.325Z,10.32
2019-05-02T22:28:13.032Z,8.38
2019-05-02T22:30:42.987Z,9.80
2019-05-02T22:33:12.702Z,6.90
2019-05-02T22:35:43.407Z,4.40
2019-05-02T22:38:22.237Z,3.92
2019-05-02T22:40:53.623Z,6.95
2019-05-02T22:43:23.273Z,11.10
2019-05-02T22:45:52.915Z,4.97
2019-05-02T22:48:22.802Z,6.92
2019-05-02T22:50:52.502Z,5.08
2019-05-02T22:53:22.220Z,5.40
2019-05-02T22:55:51.907Z,4.03
2019-05-02T22:58:22.241Z,5.35
2019-05-02T23:00:52.337Z,6.95
2019-05-02T23:03:24.168Z,6.80
2019-05-02T23:05:53.455Z,7.55
2019-05-02T23:08:23.097Z,12.98
2019-05-02T23:10:52.831Z,7.62
2019-05-02T23:13:24.644Z,5.67
2019-05-02T23:15:54.235Z,8.13
2019-05-02T23:18:24.346Z,8.50
2019-05-02T23:20:54.035Z,9.53
2019-05-02T23:23:24.211Z,9.53
2019-05-02T23:25:53.774Z,11.50
2019-05-02T23:28:27.486Z,6.45
2019-05-02T23:30:57.395Z,8.60
2019-05-02T23:33:28.890Z,11.73
2019-05-02T23:35:58.573Z,7.92
2019-05-02T23:38:28.224Z,10.38
2019-05-02T23:40:58.032Z,9.60
2019-05-02T23:43:27.826Z,6.50
2019-05-02T23:45:57.484Z,12.33
2019-05-02T23:48:27.232Z,6.70
2019-05-02T23:50:56.922Z,8.33
2019-05-02T23:53:26.567Z,7.12
2019-05-02T23:55:56.353Z,8.13
2019-05-02T23:58:26.025Z,9.33
